createdAt,value
2023-02-27T00:00:01.956Z,996.8311
2023-02-27T00:01:01.401Z,996.7345
2023-02-27T00:02:01.889Z,996.6449
2023-02-27T00:03:01.421Z,996.6517
2023-02-27T00:04:01.990Z,996.7482
2023-02-27T00:05:02.989Z,996.7206
2023-02-27T00:06:01.811Z,996.9209
2023-02-27T00:07:02.278Z,996.6797
2023-02-27T00:08:03.402Z,996.6725
2023-02-27T00:09:03.961Z,996.6793
2023-02-27T00:10:01.719Z,996.9138
2023-02-27T00:11:02.216Z,996.8586
2023-02-27T00:12:01.634Z,996.6102
2023-02-27T00:14:03.475Z,996.693
2023-02-27T00:15:03.974Z,996.6931
2023-02-27T00:16:01.762Z,996.6793
2023-02-27T00:17:02.192Z,996.7627
2023-02-27T00:18:01.716Z,996.6251
2023-02-27T00:19:02.224Z,996.8321
2023-02-27T00:20:01.635Z,996.8045
2023-02-27T00:21:02.122Z,996.8595
2023-02-27T00:22:01.624Z,996.8939
2023-02-27T00:23:02.134Z,996.8802
2023-02-27T00:24:01.562Z,996.6939
2023-02-27T00:25:03.706Z,996.7631
2023-02-27T00:26:01.574Z,997.1632
2023-02-27T00:27:02.037Z,996.8048
2023-02-27T00:28:01.487Z,997.0671
2023-02-27T00:29:01.981Z,996.7503
2023-02-27T00:30:01.492Z,996.8263
2023-02-27T00:31:03.815Z,996.7162
2023-02-27T00:32:01.532Z,996.6954
2023-02-27T00:33:01.909Z,996.7577
2023-02-27T00:34:01.411Z,996.9027
2023-02-27T00:35:01.901Z,996.7648
2023-02-27T00:36:01.318Z,996.944
2023-02-27T00:37:01.793Z,996.6474
2023-02-27T00:38:02.293Z,996.6682
2023-02-27T00:39:01.805Z,996.7785
2023-02-27T00:40:03.964Z,996.7993
2023-02-27T00:41:01.709Z,996.7995
2023-02-27T00:42:02.201Z,996.8683
2023-02-27T00:43:01.713Z,996.7995
2023-02-27T00:44:02.196Z,996.6895
2023-02-27T00:45:03.332Z,996.7168
2023-02-27T00:46:02.114Z,996.9649
2023-02-27T00:47:03.238Z,996.7995
2023-02-27T00:48:03.710Z,996.9098
2023-02-27T00:49:01.553Z,996.6758
2023-02-27T00:50:02.016Z,996.7037
2023-02-27T00:51:01.496Z,996.7037
2023-02-27T00:52:01.946Z,996.6483
2023-02-27T00:53:01.466Z,996.6207
2023-02-27T00:54:01.956Z,996.731
2023-02-27T00:55:03.054Z,996.6622
2023-02-27T00:56:03.560Z,996.5866
2023-02-27T00:57:01.308Z,996.8964
2023-02-27T00:58:01.793Z,996.6346
2023-02-27T00:59:02.292Z,996.5108
2023-02-27T01:00:01.796Z,996.7796
2023-02-27T01:01:02.329Z,996.7453
2023-02-27T01:02:01.727Z,996.828
2023-02-27T01:03:03.894Z,996.6901
2023-02-27T01:04:01.712Z,996.6833
2023-02-27T01:05:02.308Z,996.6216
2023-02-27T01:06:01.634Z,996.5253
2023-02-27T01:07:02.168Z,996.6496
2023-02-27T01:08:01.678Z,996.4775
2023-02-27T01:09:02.116Z,996.7114
2023-02-27T01:10:01.559Z,996.7531
2023-02-27T01:11:02.049Z,996.636
2023-02-27T01:12:02.533Z,996.6362
2023-02-27T01:13:02.277Z,996.5258
2023-02-27T01:14:01.709Z,996.5394
2023-02-27T01:15:02.213Z,996.505
2023-02-27T01:16:01.745Z,996.6911
2023-02-27T01:17:02.219Z,996.6979
2023-02-27T01:18:03.346Z,996.6017
2023-02-27T01:19:02.127Z,996.5811
2023-02-27T01:20:03.323Z,996.6086
2023-02-27T01:21:02.116Z,996.8289
2023-02-27T01:22:03.235Z,996.8014
2023-02-27T01:23:02.035Z,996.6704
2023-02-27T01:24:03.163Z,996.705
2023-02-27T01:25:02.043Z,996.6365
2023-02-27T01:26:01.480Z,996.8226
2023-02-27T01:27:01.961Z,996.7195
2023-02-27T01:28:01.475Z,996.8644
2023-02-27T01:29:06.213Z,996.6093
2023-02-27T01:30:01.432Z,996.534
2023-02-27T01:31:03.555Z,996.8644
2023-02-27T01:32:03.108Z,996.5752
2023-02-27T01:33:01.830Z,996.8095
2023-02-27T01:34:02.275Z,996.7752
2023-02-27T01:35:01.794Z,996.8507
2023-02-27T01:36:02.289Z,996.837
2023-02-27T01:37:01.791Z,996.9197
2023-02-27T01:38:02.300Z,996.7888
2023-02-27T01:39:01.711Z,996.7888
2023-02-27T01:40:02.207Z,996.8644
2023-02-27T01:41:01.739Z,996.7819
2023-02-27T01:42:02.183Z,996.7204
2023-02-27T01:43:01.629Z,996.6514
2023-02-27T01:44:02.156Z,996.6858
2023-02-27T01:45:01.641Z,996.7819
2023-02-27T01:46:03.843Z,996.9679
2023-02-27T01:47:01.552Z,996.6929
2023-02-27T01:48:02.033Z,996.8031
2023-02-27T01:49:01.559Z,996.6929
2023-02-27T01:50:02.023Z,996.6929
2023-02-27T01:51:01.470Z,996.6446
2023-02-27T01:52:02.061Z,996.8306
2023-02-27T01:53:03.144Z,996.5833
2023-02-27T01:54:01.956Z,996.7621
2023-02-27T01:55:01.396Z,996.6446
2023-02-27T01:56:01.896Z,996.8095
2023-02-27T01:57:01.415Z,996.837
2023-02-27T01:58:01.876Z,996.7751
2023-02-27T01:59:01.303Z,996.7476
2023-02-27T02:00:03.465Z,996.7616
2023-02-27T02:01:02.320Z,996.8857
2023-02-27T02:02:01.813Z,996.6934
2023-02-27T02:03:03.947Z,996.8862
2023-02-27T02:04:03.384Z,996.8036
2023-02-27T02:05:02.189Z,996.6315
2023-02-27T02:06:01.742Z,996.7692
2023-02-27T02:07:02.184Z,996.7696
2023-02-27T02:08:01.625Z,996.6736
2023-02-27T02:09:03.809Z,996.7427
2023-02-27T02:10:03.245Z,996.7497
2023-02-27T02:11:02.132Z,996.8735
2023-02-27T02:12:02.508Z,996.8462
2023-02-27T02:13:02.272Z,996.9563
2023-02-27T02:14:01.708Z,996.6536
2023-02-27T02:15:03.860Z,996.7157
2023-02-27T02:16:01.729Z,996.7912
2023-02-27T02:17:03.280Z,996.7021
2023-02-27T02:18:01.665Z,996.8805
2023-02-27T02:19:02.109Z,996.8119
2023-02-27T02:20:01.629Z,996.922
2023-02-27T02:21:03.020Z,996.998
2023-02-27T02:22:03.254Z,996.84
2023-02-27T02:23:03.714Z,997.0949
2023-02-27T02:24:01.484Z,996.9987
2023-02-27T02:25:02.049Z,996.9027
2023-02-27T02:26:01.491Z,997.0402
2023-02-27T02:27:01.968Z,996.9924
2023-02-27T02:28:03.190Z,996.8824
2023-02-27T02:29:01.968Z,996.9514
2023-02-27T02:30:01.413Z,996.9924
2023-02-27T02:31:02.039Z,996.9924
2023-02-27T02:32:01.526Z,996.9374
2023-02-27T02:33:01.889Z,996.8689
2023-02-27T02:35:01.831Z,996.8549
2023-02-27T02:36:02.285Z,997.0267
2023-02-27T02:37:01.803Z,996.8617
2023-02-27T02:38:02.292Z,997.2125
2023-02-27T02:39:01.767Z,996.9374
2023-02-27T02:40:02.216Z,996.9924
2023-02-27T02:41:03.330Z,996.9099
2023-02-27T02:42:02.128Z,996.8824
2023-02-27T02:43:01.673Z,997.0127
2023-02-27T02:44:02.152Z,996.9167
2023-02-27T02:45:03.334Z,996.8892
2023-02-27T02:46:02.187Z,996.9167
2023-02-27T02:47:01.573Z,997.0267
2023-02-27T02:48:02.066Z,997.0474
2023-02-27T02:49:01.589Z,997.0402
2023-02-27T02:50:02.089Z,996.9577
2023-02-27T02:51:01.488Z,996.9027
2023-02-27T02:52:01.979Z,996.9514
2023-02-27T02:53:01.516Z,997.0754
2023-02-27T02:54:01.986Z,997.0343
2023-02-27T02:55:01.429Z,997.1307
2023-02-27T02:56:01.899Z,997.1513
2023-02-27T02:57:03.014Z,996.9314
2023-02-27T02:58:01.883Z,997.0272
2023-02-27T02:59:03.015Z,997.3225
2023-02-27T03:00:03.497Z,997.0615
2023-02-27T03:01:02.310Z,997.1024
2023-02-27T03:02:01.816Z,996.9099
2023-02-27T03:03:02.306Z,996.951
2023-02-27T03:04:01.815Z,997.0674
2023-02-27T03:05:02.217Z,997.1155
2023-02-27T03:06:01.740Z,997.2184
2023-02-27T03:07:02.220Z,997.0806
2023-02-27T03:08:01.661Z,996.9634
2023-02-27T03:09:02.170Z,997.101
2023-02-27T03:10:01.660Z,997.0664
2023-02-27T03:11:02.141Z,996.9424
2023-02-27T03:12:01.575Z,996.9561
2023-02-27T03:13:02.319Z,997.0313
2023-02-27T03:14:01.843Z,997.0586
2023-02-27T03:15:02.292Z,997.134
2023-02-27T03:16:01.760Z,997.1201
2023-02-27T03:17:03.909Z,997.0789
2023-02-27T03:18:01.745Z,997.2717
2023-02-27T03:19:02.240Z,997.1962
2023-02-27T03:20:01.646Z,997.2241
2023-02-27T03:21:02.146Z,997.5266
2023-02-27T03:22:03.331Z,997.169
2023-02-27T03:23:02.146Z,997.169
2023-02-27T03:24:01.595Z,997.1065
2023-02-27T03:25:02.057Z,997.1197
2023-02-27T03:26:01.574Z,997.2227
2023-02-27T03:27:02.060Z,997.4083
2023-02-27T03:28:01.589Z,997.2154
2023-02-27T03:29:02.061Z,997.0569
2023-02-27T03:30:01.513Z,997.4083
2023-02-27T03:31:02.098Z,997.3052
2023-02-27T03:32:03.300Z,997.3397
2023-02-27T03:33:01.896Z,997.5188
2023-02-27T03:34:01.707Z,997.443
2023-02-27T03:35:01.914Z,997.2985
2023-02-27T03:36:01.322Z,997.2981
2023-02-27T03:37:01.794Z,997.4012
2023-02-27T03:39:01.802Z,997.3395
2023-02-27T03:40:02.300Z,997.477
2023-02-27T03:41:01.758Z,997.2083
2023-02-27T03:42:02.276Z,997.3251
2023-02-27T03:43:01.716Z,997.5798
2023-02-27T03:44:02.194Z,997.3525
2023-02-27T03:45:01.657Z,997.2975
2023-02-27T03:46:03.861Z,997.4284
2023-02-27T03:47:01.628Z,997.4145
2023-02-27T03:48:02.106Z,997.4831
2023-02-27T03:49:01.552Z,997.2488
2023-02-27T03:50:02.032Z,997.5244
2023-02-27T03:51:03.270Z,997.228
2023-02-27T03:52:02.024Z,997.3725
2023-02-27T03:53:01.475Z,997.3585
2023-02-27T03:54:01.950Z,997.3929
2023-02-27T03:55:03.060Z,997.6543
2023-02-27T03:56:01.952Z,997.3027
2023-02-27T03:57:01.415Z,997.3439
2023-02-27T03:58:01.869Z,997.4335
2023-02-27T03:59:01.386Z,997.4681
2023-02-27T04:00:01.889Z,997.5369
2023-02-27T04:02:03.517Z,997.3371
2023-02-27T04:03:02.323Z,997.3854
2023-02-27T04:04:03.380Z,997.3093
2023-02-27T04:05:02.286Z,997.4331
2023-02-27T04:06:01.713Z,997.5983
2023-02-27T04:07:02.176Z,997.3568
2023-02-27T04:08:01.642Z,997.4945
2023-02-27T04:09:02.197Z,997.4391
2023-02-27T04:10:01.645Z,997.439
2023-02-27T04:11:02.119Z,997.3906
2023-02-27T04:12:01.809Z,997.6595
2023-02-27T04:13:02.210Z,997.4869
2023-02-27T04:14:01.716Z,997.5902
2023-02-27T04:15:02.198Z,997.3278
2023-02-27T04:16:01.689Z,997.6311
2023-02-27T04:17:02.132Z,997.6035
2023-02-27T04:18:01.633Z,997.6035
2023-02-27T04:19:03.713Z,997.5207
2023-02-27T04:20:01.559Z,997.5207
2023-02-27T04:21:03.850Z,997.6587
2023-02-27T04:22:01.569Z,997.5759
2023-02-27T04:23:02.029Z,997.4999
2023-02-27T04:24:03.138Z,997.4999
2023-02-27T04:25:03.613Z,997.5343
2023-02-27T04:26:01.472Z,997.5551
2023-02-27T04:27:01.965Z,997.5619
2023-02-27T04:28:03.093Z,997.5756
2023-02-27T04:29:01.867Z,997.6582
2023-02-27T04:30:01.389Z,997.4096
2023-02-27T04:31:01.941Z,997.4576
2023-02-27T04:32:03.162Z,997.5058
2023-02-27T04:33:01.872Z,997.6163
2023-02-27T04:34:01.339Z,997.4782
2023-02-27T04:35:01.799Z,997.4851
2023-02-27T04:36:02.277Z,997.7403
2023-02-27T04:37:01.726Z,997.4983
2023-02-27T04:38:03.870Z,997.4983
2023-02-27T04:39:01.741Z,997.6157
2023-02-27T04:40:02.229Z,997.4983
2023-02-27T04:41:01.628Z,997.6362
2023-02-27T04:42:02.118Z,997.5397
2023-02-27T04:43:01.662Z,997.6088
2023-02-27T04:44:02.135Z,997.588
2023-02-27T04:45:01.620Z,997.6225
2023-02-27T04:46:02.171Z,997.7883
2023-02-27T04:47:01.551Z,997.5673
2023-02-27T04:48:02.043Z,997.657
2023-02-27T04:49:01.568Z,997.5949
2023-02-27T04:50:03.727Z,997.7677
2023-02-27T04:51:01.480Z,997.7264
2023-02-27T04:52:01.966Z,997.8645
2023-02-27T04:53:01.511Z,997.6851
2023-02-27T04:54:01.958Z,997.6436
2023-02-27T04:55:01.413Z,997.7748
2023-02-27T04:56:01.893Z,997.7956
2023-02-27T04:57:03.031Z,997.678
2023-02-27T04:58:01.882Z,997.9025
2023-02-27T04:59:01.317Z,997.726
2023-02-27T05:00:01.797Z,997.7812
2023-02-27T05:01:02.318Z,997.657
2023-02-27T05:02:01.965Z,997.878
2023-02-27T05:03:02.281Z,997.8573
2023-02-27T05:04:01.714Z,997.8777
2023-02-27T05:05:02.201Z,997.9157
2023-02-27T05:06:01.748Z,997.888
2023-02-27T05:07:02.205Z,997.822
2023-02-27T05:08:01.643Z,997.822
2023-02-27T05:09:03.805Z,997.964
2023-02-27T05:10:01.636Z,997.7805
2023-02-27T05:11:05.843Z,997.8081
2023-02-27T05:12:01.643Z,997.815
2023-02-27T05:13:02.142Z,997.8948
2023-02-27T05:14:01.635Z,997.9222
2023-02-27T05:15:03.790Z,997.7869
2023-02-27T05:16:01.631Z,998.0257
2023-02-27T05:17:02.143Z,997.7179
2023-02-27T05:18:01.606Z,997.8495
2023-02-27T05:19:02.041Z,997.8633
2023-02-27T05:20:01.476Z,997.8633
2023-02-27T05:21:01.958Z,998.0053
2023-02-27T05:22:03.081Z,997.8218
2023-02-27T05:23:01.988Z,998.0743
2023-02-27T05:24:01.396Z,997.943
2023-02-27T05:25:01.877Z,998.0536
2023-02-27T05:26:01.407Z,997.943
2023-02-27T05:27:01.881Z,997.9844
2023-02-27T05:28:01.340Z,998.0328
2023-02-27T05:29:01.806Z,998.0257
2023-02-27T05:30:02.287Z,997.7591
2023-02-27T05:31:01.796Z,997.8419
2023-02-27T05:32:02.443Z,997.7379
2023-02-27T05:33:03.442Z,997.8
2023-02-27T05:34:02.189Z,997.8866
2023-02-27T05:35:01.715Z,997.7379
2023-02-27T05:36:02.280Z,997.9631
2023-02-27T05:37:01.640Z,997.7242
2023-02-27T05:38:02.116Z,997.7034
2023-02-27T05:39:01.643Z,997.8801
2023-02-27T05:40:03.791Z,997.7446
2023-02-27T05:41:01.557Z,997.8412
2023-02-27T05:42:02.119Z,997.7101
2023-02-27T05:43:01.562Z,997.9282
2023-02-27T05:44:02.043Z,997.8829
2023-02-27T05:45:01.513Z,998.0389
2023-02-27T05:46:02.021Z,998.1863
2023-02-27T05:47:01.487Z,998.0041
2023-02-27T05:48:01.956Z,997.9833
2023-02-27T05:49:01.397Z,998.0455
2023-02-27T05:50:01.970Z,997.9003
2023-02-27T05:51:03.106Z,997.9902
2023-02-27T05:52:01.913Z,998.0385
2023-02-27T05:53:01.325Z,998.0038
2023-02-27T05:54:01.922Z,998.0038
2023-02-27T05:55:03.957Z,998.179
2023-02-27T05:56:03.491Z,998.0315
2023-02-27T05:57:02.287Z,998.2275
2023-02-27T05:58:03.392Z,998.2134
2023-02-27T05:59:02.202Z,998.2411
2023-02-27T06:00:01.762Z,998.0729
2023-02-27T06:01:03.904Z,997.9
2023-02-27T06:02:01.676Z,998.128
2023-02-27T06:03:02.141Z,998.2134
2023-02-27T06:04:01.646Z,998.0591
2023-02-27T06:05:02.179Z,998.1857
2023-02-27T06:06:01.555Z,998.1787
2023-02-27T06:07:03.750Z,998.0103
2023-02-27T06:08:03.237Z,998.0448
2023-02-27T06:09:02.042Z,997.934
2023-02-27T06:10:01.511Z,998.0516
2023-02-27T06:11:04.587Z,997.9684
2023-02-27T06:13:01.815Z,998.0031
2023-02-27T06:14:02.299Z,998.0237
2023-02-27T06:15:01.801Z,997.9961
2023-02-27T06:16:02.320Z,998.0031
2023-02-27T06:17:01.812Z,998.0171
2023-02-27T06:18:02.230Z,998.0031
2023-02-27T06:19:03.395Z,998.0031
2023-02-27T06:20:02.112Z,997.9477
2023-02-27T06:21:01.635Z,998.0237
2023-02-27T06:22:02.135Z,998.0306
2023-02-27T06:23:01.554Z,998.0997
2023-02-27T06:24:03.738Z,998.1712
2023-02-27T06:25:01.557Z,998.1988
2023-02-27T06:26:01.958Z,998.0304
2023-02-27T06:27:03.156Z,998.0511
2023-02-27T06:28:01.960Z,998.1342
2023-02-27T06:29:03.108Z,998.1065
2023-02-27T06:30:01.892Z,998.4101
2023-02-27T06:31:01.408Z,998.2401
2023-02-27T06:32:03.507Z,998.1985
2023-02-27T06:34:01.795Z,998.3614
2023-02-27T06:35:03.976Z,998.2923
2023-02-27T06:36:03.533Z,998.4029
2023-02-27T06:37:04.171Z,998.4721
2023-02-27T06:38:01.704Z,998.4721
2023-02-27T06:39:03.883Z,998.4721
2023-02-27T06:40:01.706Z,998.2605
2023-02-27T06:41:02.200Z,998.5413
2023-02-27T06:42:03.334Z,998.6104
2023-02-27T06:43:02.112Z,998.5203
2023-02-27T06:44:01.561Z,998.4232
2023-02-27T06:45:03.699Z,998.2393
2023-02-27T06:46:01.580Z,998.5615
2023-02-27T06:47:02.036Z,998.4782
2023-02-27T06:48:01.572Z,998.4574
2023-02-27T06:49:02.034Z,998.4019
2023-02-27T06:50:01.463Z,998.3119
2023-02-27T06:51:01.953Z,998.6028
2023-02-27T06:52:01.466Z,998.4019
2023-02-27T06:53:01.976Z,998.4226
2023-02-27T06:54:01.402Z,998.4156
2023-02-27T06:55:01.879Z,998.3254
2023-02-27T06:56:01.333Z,998.3807
2023-02-27T06:57:01.862Z,998.5609
2023-02-27T06:58:01.308Z,998.5538
2023-02-27T06:59:01.800Z,998.325
2023-02-27T07:00:02.282Z,998.4358
2023-02-27T07:01:03.535Z,998.415
2023-02-27T07:02:02.279Z,998.401
2023-02-27T07:03:01.709Z,998.401
2023-02-27T07:04:03.887Z,998.6229
2023-02-27T07:05:07.848Z,998.4703
2023-02-27T07:06:02.184Z,998.7128
2023-02-27T07:07:34.815Z,998.567
2023-02-27T07:08:02.112Z,998.4561
2023-02-27T07:09:06.848Z,998.5116
2023-02-27T07:10:02.116Z,998.7128
2023-02-27T07:11:01.624Z,998.5116
2023-02-27T07:12:03.809Z,998.6225
2023-02-27T07:13:01.635Z,998.5393
2023-02-27T07:14:02.111Z,998.4631
2023-02-27T07:15:01.568Z,998.3799
2023-02-27T07:16:02.045Z,998.8167
2023-02-27T07:17:03.156Z,998.7474
2023-02-27T07:18:01.969Z,998.567
2023-02-27T07:19:01.485Z,998.7474
2023-02-27T07:20:01.964Z,998.7405
2023-02-27T07:21:01.414Z,998.6089
2023-02-27T07:22:01.879Z,998.5812
2023-02-27T07:23:01.396Z,998.6021
2023-02-27T07:24:03.551Z,998.6784
2023-02-27T07:26:01.819Z,998.5467
2023-02-27T07:27:02.276Z,998.8448
2023-02-27T07:28:01.920Z,998.5328
2023-02-27T07:29:02.200Z,998.7061
2023-02-27T07:30:01.718Z,998.6922
2023-02-27T07:31:02.358Z,998.7198
2023-02-27T07:32:01.748Z,998.8308
2023-02-27T07:33:02.122Z,998.8308
2023-02-27T07:34:01.639Z,998.8308
2023-02-27T07:35:02.113Z,998.7822
2023-02-27T07:36:03.301Z,998.7474
2023-02-27T07:37:02.035Z,998.6572
2023-02-27T07:38:01.574Z,998.8166
2023-02-27T07:39:02.041Z,998.6777
2023-02-27T07:40:03.164Z,998.7331
2023-02-27T07:41:03.645Z,998.608
2023-02-27T07:42:01.483Z,998.8161
2023-02-27T07:43:01.900Z,998.6912
2023-02-27T07:44:01.403Z,998.7676
2023-02-27T07:45:01.882Z,998.7328
2023-02-27T07:46:01.399Z,998.7258
2023-02-27T07:47:03.495Z,998.9894
2023-02-27T07:48:02.317Z,998.6491
2023-02-27T07:49:01.729Z,998.7878
2023-02-27T07:50:04.724Z,998.7878
2023-02-27T07:51:03.406Z,998.8224
2023-02-27T07:52:02.241Z,998.8016
2023-02-27T07:53:01.664Z,998.9265
2023-02-27T07:54:02.150Z,999.0306
2023-02-27T07:55:01.648Z,998.7596
2023-02-27T07:56:02.130Z,998.8221
2023-02-27T07:57:01.589Z,998.7733
2023-02-27T07:58:02.048Z,998.7733
2023-02-27T07:59:01.578Z,998.676
2023-02-27T08:00:02.051Z,998.8705
2023-02-27T08:01:03.183Z,998.773
2023-02-27T08:02:01.988Z,998.7798
2023-02-27T08:03:01.550Z,998.6894
2023-02-27T08:04:01.967Z,998.7312
2023-02-27T08:05:01.413Z,998.7659
2023-02-27T08:06:02.437Z,998.8284
2023-02-27T08:07:01.408Z,998.6961
2023-02-27T08:08:03.597Z,998.7655
2023-02-27T08:09:01.325Z,998.9114
2023-02-27T08:10:01.803Z,998.5774
2023-02-27T08:11:02.292Z,998.7374
2023-02-27T08:12:03.486Z,998.4454
2023-02-27T08:13:03.960Z,998.5775
2023-02-27T08:14:03.503Z,998.7724
2023-02-27T08:15:03.815Z,998.8141
2023-02-27T08:16:01.677Z,998.7097
2023-02-27T08:17:02.131Z,998.5775
2023-02-27T08:18:01.637Z,998.6817
2023-02-27T08:19:02.125Z,998.612
2023-02-27T08:20:01.576Z,998.8066
2023-02-27T08:21:02.054Z,998.6952
2023-02-27T08:22:03.239Z,998.7369
2023-02-27T08:23:02.044Z,998.7647
2023-02-27T08:24:01.497Z,998.9455
2023-02-27T08:25:01.956Z,998.7643
2023-02-27T08:26:01.483Z,998.8824
2023-02-27T08:27:01.973Z,998.7845
2023-02-27T08:28:01.432Z,998.7355
2023-02-27T08:29:03.545Z,998.8402
2023-02-27T08:30:02.991Z,998.8544
2023-02-27T08:31:03.527Z,999.1052
2023-02-27T08:32:03.975Z,998.952
2023-02-27T08:33:03.501Z,998.792
2023-02-27T08:34:09.895Z,998.6597
2023-02-27T08:35:01.790Z,998.7432
2023-02-27T08:36:02.242Z,998.9242
2023-02-27T08:37:01.709Z,998.8265
2023-02-27T08:38:02.202Z,998.8264
2023-02-27T08:39:01.634Z,998.6729
2023-02-27T08:40:02.145Z,998.7493
2023-02-27T08:41:03.311Z,998.7493
2023-02-27T08:42:02.122Z,998.6656
2023-02-27T08:43:01.545Z,998.7561
2023-02-27T08:44:03.717Z,998.8815
2023-02-27T08:45:01.569Z,998.8047
2023-02-27T08:46:02.106Z,998.8674
2023-02-27T08:47:01.545Z,998.8045
2023-02-27T08:48:02.060Z,998.8393
2023-02-27T08:49:03.168Z,998.909
2023-02-27T08:50:02.003Z,998.9509
2023-02-27T08:51:01.477Z,999.0065
2023-02-27T08:52:03.555Z,998.9366
2023-02-27T08:53:01.400Z,998.8319
2023-02-27T08:54:01.869Z,998.8668
2023-02-27T08:55:03.014Z,998.7411
2023-02-27T08:56:01.792Z,998.755
2023-02-27T08:57:02.278Z,998.8247
2023-02-27T08:58:03.473Z,998.755
2023-02-27T08:59:02.294Z,998.8387
2023-02-27T09:00:01.764Z,998.9714
2023-02-27T09:01:02.294Z,998.776
2023-02-27T09:02:01.724Z,998.8248
2023-02-27T09:03:03.847Z,998.8387
2023-02-27T09:04:01.623Z,998.8248
2023-02-27T09:05:02.108Z,998.9154
2023-02-27T09:06:01.676Z,998.8037
2023-02-27T09:07:02.117Z,998.9293
2023-02-27T09:08:01.549Z,998.8664
2023-02-27T09:09:02.032Z,998.9849
2023-02-27T09:10:01.551Z,999.0687
2023-02-27T09:11:03.054Z,999.0965
2023-02-27T09:12:01.788Z,999.0545
2023-02-27T09:13:02.277Z,998.9983
2023-02-27T09:14:01.716Z,998.9212
2023-02-27T09:15:02.187Z,998.942
2023-02-27T09:16:01.744Z,998.8511
2023-02-27T09:17:02.226Z,998.9279
2023-02-27T09:18:01.632Z,999.0257
2023-02-27T09:19:02.122Z,998.907
2023-02-27T09:20:01.665Z,998.9629
2023-02-27T09:21:03.800Z,999.0048
2023-02-27T09:22:01.578Z,998.9629
2023-02-27T09:23:03.713Z,999.1028
2023-02-27T09:24:17.282Z,999.1937
2023-02-27T09:25:02.052Z,999.0609
2023-02-27T09:26:03.219Z,999.0609
2023-02-27T09:27:01.983Z,999.075
2023-02-27T09:28:01.501Z,999.2148
2023-02-27T09:29:01.959Z,999.054
2023-02-27T09:30:01.386Z,999.3056
2023-02-27T09:31:01.868Z,999.3266
2023-02-27T09:32:01.566Z,999.1868
2023-02-27T09:33:01.895Z,998.942
2023-02-27T09:34:01.319Z,999.0888
2023-02-27T09:35:01.787Z,999.2427
2023-02-27T09:36:02.381Z,999.1867
2023-02-27T09:37:03.388Z,999.1726
2023-02-27T09:38:02.211Z,999.2775
2023-02-27T09:39:01.716Z,999.2074
2023-02-27T09:40:02.196Z,999.1934
2023-02-27T09:41:03.390Z,999.1373
2023-02-27T09:42:02.198Z,999.1932
2023-02-27T09:43:01.671Z,999.144
2023-02-27T09:44:03.796Z,998.9967
2023-02-27T09:45:02.639Z,998.9823
2023-02-27T09:46:02.141Z,999.1643
2023-02-27T09:47:01.557Z,998.9329
2023-02-27T09:48:02.083Z,999.2063
2023-02-27T09:49:01.485Z,999.0801
2023-02-27T09:50:02.023Z,999.0449
2023-02-27T09:51:03.093Z,999.1358
2023-02-27T09:52:01.949Z,999.1919
2023-02-27T09:53:01.424Z,999.0937
2023-02-27T09:54:01.873Z,998.9254
2023-02-27T09:55:01.368Z,999.1288
2023-02-27T09:56:02.008Z,998.855
2023-02-27T09:57:02.314Z,999.0373
2023-02-27T09:58:03.514Z,999.0513
2023-02-27T09:59:02.295Z,998.8898
2023-02-27T10:00:03.436Z,999.1282
2023-02-27T10:01:02.218Z,999.072
2023-02-27T10:02:03.421Z,999.2614
2023-02-27T10:03:02.241Z,998.9874
2023-02-27T10:04:01.683Z,999.1702
2023-02-27T10:05:03.880Z,998.9102
2023-02-27T10:06:01.735Z,998.8396
2023-02-27T10:07:03.797Z,998.9659
2023-02-27T10:08:01.576Z,999.0292
2023-02-27T10:09:03.741Z,998.8818
2023-02-27T10:10:01.564Z,999.0292
2023-02-27T10:11:02.993Z,998.9447
2023-02-27T10:12:01.718Z,998.9655
2023-02-27T10:13:03.876Z,999.0005
2023-02-27T10:14:01.719Z,998.9303
2023-02-27T10:15:02.230Z,998.9095
2023-02-27T10:16:01.914Z,999.0926
2023-02-27T10:17:02.340Z,998.938
2023-02-27T10:18:07.580Z,999.0078
2023-02-27T10:19:02.132Z,999.0571
2023-02-27T10:20:01.651Z,999.0007
2023-02-27T10:21:02.124Z,999.0359
2023-02-27T10:22:01.563Z,999.1061
2023-02-27T10:23:02.047Z,998.9722
2023-02-27T10:24:03.280Z,998.9584
2023-02-27T10:25:02.042Z,999.1201
2023-02-27T10:26:03.170Z,999.0499
2023-02-27T10:27:01.973Z,999.0077
2023-02-27T10:28:01.474Z,999.1341
2023-02-27T10:29:01.981Z,999.2044
2023-02-27T10:30:01.478Z,999.2466
2023-02-27T10:31:01.925Z,999.2466
2023-02-27T10:32:01.491Z,999.31
2023-02-27T10:33:01.884Z,999.1062
2023-02-27T10:34:01.325Z,999.0921
2023-02-27T10:35:01.855Z,999.2888
2023-02-27T10:36:03.433Z,999.141
2023-02-27T10:37:01.801Z,999.3169
2023-02-27T10:38:02.285Z,999.2047
2023-02-27T10:39:01.718Z,999.6194
2023-02-27T10:40:03.913Z,999.4789
2023-02-27T10:41:01.733Z,999.2469
2023-02-27T10:42:02.212Z,999.282
2023-02-27T10:43:01.681Z,999.24
2023-02-27T10:44:02.132Z,999.2542
2023-02-27T10:45:01.640Z,999.2121
2023-02-27T10:46:03.909Z,999.2402
2023-02-27T10:47:03.250Z,999.3877
2023-02-27T10:48:02.046Z,999.6194
2023-02-27T10:49:01.568Z,999.6194
2023-02-27T10:50:02.044Z,999.1908
2023-02-27T10:51:01.493Z,999.4368
2023-02-27T10:52:01.993Z,999.4789
2023-02-27T10:53:01.491Z,999.275
2023-02-27T10:54:01.994Z,999.1766
2023-02-27T10:55:01.431Z,999.3874
2023-02-27T10:56:01.993Z,999.3171
2023-02-27T10:57:01.441Z,999.3241
2023-02-27T10:58:01.890Z,999.2046
2023-02-27T10:59:03.003Z,999.2327
2023-02-27T11:00:01.803Z,999.1834
2023-02-27T11:01:02.277Z,999.3241
2023-02-27T11:02:01.867Z,999.05
2023-02-27T11:03:02.282Z,999.2047
2023-02-27T11:04:01.700Z,999.2467
2023-02-27T11:05:02.193Z,999.1201
2023-02-27T11:06:01.787Z,999.1415
2023-02-27T11:07:02.271Z,999.254
2023-02-27T11:08:01.718Z,999.0712
2023-02-27T11:09:02.220Z,999.1412
2023-02-27T11:10:01.640Z,999.1341
2023-02-27T11:11:03.804Z,999.0214
2023-02-27T11:12:01.706Z,999.3308
2023-02-27T11:13:02.222Z,998.9722
2023-02-27T11:14:01.644Z,999.1412
2023-02-27T11:15:03.794Z,999.064
2023-02-27T11:16:01.678Z,999.029
2023-02-27T11:17:03.725Z,999.0853
2023-02-27T11:18:01.553Z,999.1273
2023-02-27T11:19:02.024Z,998.9303
2023-02-27T11:20:03.149Z,998.9864
2023-02-27T11:21:03.708Z,998.9935
2023-02-27T11:22:03.087Z,998.9441
2023-02-27T11:23:01.953Z,998.965
2023-02-27T11:24:01.391Z,998.9368
2023-02-27T11:25:04.125Z,998.9648
2023-02-27T11:26:01.393Z,999.0985
2023-02-27T11:27:01.878Z,998.9508
2023-02-27T11:28:03.043Z,998.9441
2023-02-27T11:29:01.810Z,998.944
2023-02-27T11:30:02.288Z,999.1901
2023-02-27T11:31:01.859Z,998.944
2023-02-27T11:32:02.339Z,999.0425
2023-02-27T11:33:01.724Z,999.0352
2023-02-27T11:34:02.210Z,999.0281
2023-02-27T11:35:03.402Z,998.8311
2023-02-27T11:36:02.255Z,998.8029
2023-02-27T11:37:01.691Z,998.8591
2023-02-27T11:38:02.139Z,999.0347
2023-02-27T11:39:03.337Z,999.049
2023-02-27T11:40:03.795Z,998.8798
2023-02-27T11:41:01.568Z,998.901
2023-02-27T11:42:03.727Z,998.9712
2023-02-27T11:43:01.564Z,998.9429
2023-02-27T11:44:02.074Z,999.0061
2023-02-27T11:45:03.195Z,998.9991
2023-02-27T11:46:11.378Z,998.9496
2023-02-27T11:47:01.514Z,998.9214
2023-02-27T11:48:01.971Z,998.9711
2023-02-27T11:49:01.412Z,998.9216
2023-02-27T11:50:02.002Z,999.0555
2023-02-27T11:51:01.402Z,998.9429
2023-02-27T11:52:03.569Z,999.2106
2023-02-27T11:53:01.324Z,998.9077